Time;durP1;ratioP1;P1;durP2;ratioP2;P2;SDS_P1;SDS_P2;PMS_P1;PMS_P2;Temp;Humidity;BMP_temperature;BMP_pressure;BME280_temperature;BME280_humidity;BME280_pressure;Samples;Min_cycle;Max_cycle;Signal;HPM_P1;HPM_P2
2021/10/25 00:02:44;;;;;;;30.70;16.90;;;;;;;5.14;62.28;100342.97;236612;1193;138816;-61
2021/10/25 00:07:47;;;;;;;33.30;17.60;;;;;;;5.08;62.25;100338.69;236486;1193;139100;-62
2021/10/25 00:12:50;;;;;;;33.10;18.70;;;;;;;5.01;62.19;100330.71;236570;1193;140645;-61
2021/10/25 00:17:53;;;;;;;33.30;18.90;;;;;;;4.94;61.96;100327.33;236595;1193;140334;-62
2021/10/25 00:22:56;;;;;;;39.00;20.80;;;;;;;4.83;62.08;100328.58;236587;1193;138560;-62
2021/10/25 00:28:00;;;;;;;39.90;20.80;;;;;;;4.71;61.72;100332.83;236484;1193;139114;-62
2021/10/25 00:33:03;;;;;;;33.70;19.30;;;;;;;4.60;61.79;100338.64;236583;1193;139153;-62
2021/10/25 00:38:06;;;;;;;37.10;19.30;;;;;;;4.51;62.08;100337.05;236230;1193;138419;-63
2021/10/25 00:43:09;;;;;;;37.60;20.50;;;;;;;4.40;61.99;100333.52;236699;1193;138670;-60
2021/10/25 00:48:13;;;;;;;35.80;19.60;;;;;;;4.35;62.19;100325.01;236513;1193;139130;-61
2021/10/25 00:53:16;;;;;;;36.20;19.20;;;;;;;4.33;62.23;100313.09;236660;1193;138998;-61
2021/10/25 00:58:19;;;;;;;40.50;20.90;;;;;;;4.26;62.20;100308.82;236614;1193;139267;-60
2021/10/25 01:03:23;;;;;;;35.00;20.00;;;;;;;4.25;62.20;100309.17;236461;1193;139900;-59
2021/10/25 01:08:34;;;;;;;41.60;21.30;;;;;;;4.23;62.07;100304.29;236758;1193;139264;-61
2021/10/25 01:13:37;;;;;;;37.50;21.00;;;;;;;4.22;62.24;100300.26;236631;1193;139533;-62
2021/10/25 01:18:41;;;;;;;39.70;21.60;;;;;;;4.18;62.07;100299.27;236872;1193;139054;-58
2021/10/25 01:23:45;;;;;;;37.40;20.30;;;;;;;4.10;61.93;100297.47;236631;1193;139055;-58
2021/10/25 01:28:52;;;;;;;39.50;20.70;;;;;;;3.98;62.00;100291.32;236535;1193;138959;-61
2021/10/25 01:33:55;;;;;;;36.10;20.70;;;;;;;3.88;62.02;100282.35;236591;1193;140175;-62
2021/10/25 01:39:01;;;;;;;35.70;20.10;;;;;;;3.80;62.17;100284.21;236567;1193;141158;-62
2021/10/25 01:44:10;;;;;;;36.50;20.40;;;;;;;3.70;62.07;100278.73;236337;1193;138780;-61
2021/10/25 01:49:13;;;;;;;36.10;20.20;;;;;;;3.61;62.10;100280.27;236777;1193;138768;-63
2021/10/25 01:54:16;;;;;;;36.00;19.40;;;;;;;3.51;61.86;100278.65;236680;1192;138687;-64
2021/10/25 01:59:21;;;;;;;38.80;20.30;;;;;;;3.42;61.94;100275.27;236636;1193;139391;-60
2021/10/25 02:04:24;;;;;;;33.50;19.20;;;;;;;3.38;62.34;100274.61;236411;1194;138612;-61
2021/10/25 02:09:28;;;;;;;39.40;20.40;;;;;;;3.31;62.31;100271.89;236614;1193;138613;-61
2021/10/25 02:14:31;;;;;;;37.20;19.20;;;;;;;3.31;62.17;100272.06;236296;1193;139026;-64
2021/10/25 02:19:34;;;;;;;39.60;19.80;;;;;;;3.26;62.36;100260.55;236637;1193;138606;-62
2021/10/25 02:24:45;;;;;;;39.80;20.20;;;;;;;3.20;62.35;100258.70;236367;1193;139404;-63
2021/10/25 02:29:49;;;;;;;45.60;20.90;;;;;;;3.22;62.74;100250.62;236649;1193;140086;-62
2021/10/25 02:34:56;;;;;;;38.20;20.40;;;;;;;3.25;62.68;100251.80;236411;1193;139109;-62
2021/10/25 02:39:59;;;;;;;39.10;19.90;;;;;;;3.27;62.65;100247.91;236279;1193;138826;-63
2021/10/25 02:45:04;;;;;;;37.90;19.30;;;;;;;3.29;62.82;100248.77;236344;1194;140249;-63
2021/10/25 02:50:08;;;;;;;37.00;19.50;;;;;;;3.29;62.56;100246.85;236219;1193;138974;-62
2021/10/25 02:55:11;;;;;;;36.50;19.30;;;;;;;3.22;62.47;100247.82;236607;1193;138574;-62
2021/10/25 03:00:15;;;;;;;34.60;18.60;;;;;;;3.15;62.44;100245.27;236444;1193;138587;-63
2021/10/25 03:05:19;;;;;;;40.20;21.00;;;;;;;3.11;62.73;100245.66;236638;1193;139934;-60
2021/10/25 03:10:22;;;;;;;36.20;19.50;;;;;;;3.13;62.85;100243.37;236574;1193;138833;-62
2021/10/25 03:15:25;;;;;;;36.50;18.50;;;;;;;3.11;62.62;100244.78;236518;1192;138586;-62
2021/10/25 03:20:29;;;;;;;35.70;17.60;;;;;;;3.03;62.45;100247.16;236649;1193;138723;-61
2021/10/25 03:25:32;;;;;;;38.50;21.80;;;;;;;3.06;62.86;100245.73;236677;1193;139079;-61
2021/10/25 03:30:35;;;;;;;38.90;18.50;;;;;;;3.13;63.05;100244.58;236444;1193;138510;-62
2021/10/25 03:35:40;;;;;;;32.50;17.90;;;;;;;3.07;62.61;100238.17;236449;1193;139436;-62
2021/10/25 03:40:49;;;;;;;35.30;17.50;;;;;;;2.95;62.52;100242.00;236140;1193;138814;-63
2021/10/25 03:46:04;;;;;;;31.80;18.50;;;;;;;2.84;62.51;100238.09;236478;1193;139222;-62
2021/10/25 03:51:10;;;;;;;33.90;17.60;;;;;;;2.79;62.64;100228.50;236291;1193;140010;-63
2021/10/25 03:56:28;;;;;;;29.70;17.40;;;;;;;2.78;62.88;100221.50;236311;1193;140872;-62
2021/10/25 04:29:04;;;;;;;30.90;17.20;;;;;;;2.78;63.22;100190.50;236523;1193;139226;-62
2021/10/25 04:34:09;;;;;;;25.40;11.60;;;;;;;2.70;63.21;100184.11;236466;1193;139137;-62
2021/10/25 04:39:47;;;;;;;31.50;16.20;;;;;;;2.66;63.52;100171.54;236616;1193;139959;-60
2021/10/25 04:44:51;;;;;;;34.80;17.50;;;;;;;2.64;63.28;100165.95;236411;1193;138789;-61
2021/10/25 04:49:54;;;;;;;30.10;17.10;;;;;;;2.61;63.32;100160.91;236638;1193;139041;-63
2021/10/25 04:55:00;;;;;;;34.60;17.30;;;;;;;2.60;63.53;100159.88;236435;1193;138548;-62
2021/10/25 05:00:04;;;;;;;34.60;17.20;;;;;;;2.63;63.32;100158.09;236847;1193;139169;-62
2021/10/25 05:05:09;;;;;;;35.90;18.40;;;;;;;2.64;63.53;100158.94;236440;1193;139172;-62
2021/10/25 05:10:12;;;;;;;37.30;18.50;;;;;;;2.68;63.55;100155.57;236618;1193;138675;-60
2021/10/25 05:15:15;;;;;;;35.50;17.30;;;;;;;2.70;63.36;100150.81;236511;1193;139971;-62
2021/10/25 05:20:18;;;;;;;33.40;18.10;;;;;;;2.70;63.43;100150.13;236341;1193;140786;-60
2021/10/25 05:25:24;;;;;;;32.10;17.10;;;;;;;2.67;63.40;100156.80;236480;1194;138762;-62
2021/10/25 05:30:27;;;;;;;34.40;17.50;;;;;;;2.66;63.43;100154.19;236182;1194;139341;-61
2021/10/25 05:35:30;;;;;;;30.00;16.60;;;;;;;2.66;63.41;100151.74;236371;1193;138778;-62
2021/10/25 05:40:33;;;;;;;32.70;17.80;;;;;;;2.65;63.56;100154.90;236423;1193;139823;-61
2021/10/25 05:45:38;;;;;;;37.70;17.60;;;;;;;2.63;63.53;100149.67;236584;1193;139940;-61
2021/10/25 05:50:43;;;;;;;34.00;18.30;;;;;;;2.65;63.94;100153.68;236574;1193;138846;-60
2021/10/25 05:55:47;;;;;;;38.40;19.30;;;;;;;2.75;64.20;100148.30;236631;1193;141089;-60
2021/10/25 06:00:56;;;;;;;37.20;19.00;;;;;;;2.79;64.06;100154.40;236659;1193;139478;-61
2021/10/25 06:06:16;;;;;;;41.40;18.40;;;;;;;2.84;63.80;100151.17;236639;1193;140816;-61
2021/10/25 06:11:19;;;;;;;36.30;17.70;;;;;;;2.92;63.99;100146.70;236570;1193;141571;-61
2021/10/25 06:16:35;;;;;;;30.80;17.60;;;;;;;3.03;64.58;100150.58;236461;1193;139290;-62
2021/10/25 06:21:40;;;;;;;36.00;17.70;;;;;;;3.17;64.62;100151.43;236619;1193;139047;-60
2021/10/25 06:26:47;;;;;;;36.40;17.20;;;;;;;3.31;64.79;100151.57;236527;1193;138865;-62
2021/10/25 06:31:50;;;;;;;35.20;17.60;;;;;;;3.44;64.92;100147.52;236857;1192;139291;-62
2021/10/25 06:36:54;;;;;;;34.80;18.40;;;;;;;3.57;65.15;100142.77;236170;1193;139076;-60
2021/10/25 06:42:00;;;;;;;33.80;18.20;;;;;;;3.68;64.90;100145.21;236880;1193;230009;-61
2021/10/25 06:47:13;;;;;;;36.20;18.80;;;;;;;3.75;64.62;100148.79;236742;1193;138635;-61
2021/10/25 06:52:17;;;;;;;35.50;17.20;;;;;;;3.77;64.62;100148.94;236498;1193;138791;-61
2021/10/25 06:57:21;;;;;;;31.30;16.80;;;;;;;3.80;64.84;100152.75;236657;1187;139074;-63
2021/10/25 07:02:26;;;;;;;36.50;17.80;;;;;;;3.88;64.86;100149.10;236654;1193;138706;-61
2021/10/25 07:07:37;;;;;;;30.90;16.30;;;;;;;4.03;64.84;100148.66;236447;1193;139505;-61
2021/10/25 07:12:44;;;;;;;30.00;16.60;;;;;;;4.19;65.07;100152.27;236711;1193;139396;-61
2021/10/25 07:59:24;;;;;;;34.10;16.10;;;;;;;4.62;64.92;100144.75;236612;1193;138992;-61
2021/10/25 08:12:05;;;;;;;33.30;17.90;;;;;;;5.85;64.82;100105.00;236610;1187;138909;-62
2021/10/25 08:17:04;;;;;;;38.10;19.50;;;;;;;6.05;64.73;100104.17;236561;1193;139635;-62
2021/10/25 08:22:10;;;;;;;34.20;19.20;;;;;;;6.23;64.78;100100.88;236440;1193;139228;-61
2021/10/25 08:27:16;;;;;;;37.00;18.30;;;;;;;6.42;64.94;100097.17;236545;1193;139259;-61
2021/10/25 08:42:34;;;;;;;32.60;18.00;;;;;;;6.96;64.33;100085.02;236604;1193;138509;-63
2021/10/25 08:47:47;;;;;;;34.80;17.30;;;;;;;7.13;64.42;100082.73;236173;1193;138833;-61
2021/10/25 08:52:52;;;;;;;30.10;17.40;;;;;;;7.30;64.16;100079.20;236513;1193;138650;-63
2021/10/25 08:58:05;;;;;;;42.10;16.80;;;;;;;7.47;63.75;100071.23;236592;1187;140419;-62
2021/10/25 09:03:09;;;;;;;34.30;17.80;;;;;;;7.62;63.69;100064.38;236481;1194;140474;-61
2021/10/25 09:08:13;;;;;;;35.00;20.20;;;;;;;7.79;63.45;100062.56;236307;1193;139448;-62
2021/10/25 09:13:20;;;;;;;37.70;19.50;;;;;;;7.95;63.39;100057.59;236679;1193;138690;-63
2021/10/25 09:18:30;;;;;;;185.50;102.50;;;;;;;8.15;63.35;100049.99;236449;1193;140474;-60
2021/10/25 09:23:50;;;;;;;56.10;28.60;;;;;;;8.36;63.07;100047.30;236273;1193;139330;-61
2021/10/25 09:29:00;;;;;;;43.10;18.80;;;;;;;8.54;62.63;100040.29;236631;1193;139176;-61
2021/10/25 09:34:12;;;;;;;34.80;17.30;;;;;;;8.68;62.48;100034.45;236537;1194;138745;-60
2021/10/25 09:39:59;;;;;;;38.10;18.80;;;;;;;8.85;62.15;100030.45;235905;1193;139502;-62
2021/10/25 09:51:06;;;;;;;37.00;17.20;;;;;;;9.18;61.61;100030.53;236215;1193;139148;-59
2021/10/25 09:56:13;;;;;;;37.10;16.20;;;;;;;9.31;61.40;100027.17;236467;1193;138968;-62
2021/10/25 10:01:38;;;;;;;33.90;16.50;;;;;;;9.46;61.06;100022.65;236687;1193;138761;-63
2021/10/25 10:06:42;;;;;;;37.50;16.80;;;;;;;9.59;60.95;100015.04;236461;1186;139322;-61
2021/10/25 10:11:45;;;;;;;32.90;15.10;;;;;;;9.74;60.67;100007.48;236684;1193;139771;-63
2021/10/25 10:16:51;;;;;;;34.20;15.10;;;;;;;9.93;60.50;100001.71;236485;1193;139774;-60
2021/10/25 10:21:59;;;;;;;40.30;15.60;;;;;;;10.13;60.30;99994.42;236052;1193;139012;-60
2021/10/25 10:27:09;;;;;;;29.90;13.20;;;;;;;10.33;60.02;99994.05;236540;1193;139649;-62
2021/10/25 10:32:16;;;;;;;29.40;13.80;;;;;;;10.54;59.74;99989.56;236541;1193;139877;-60
2021/10/25 10:37:32;;;;;;;;;;;;;;;10.73;59.53;99979.23;236467;1193;138977;-60
2021/10/25 10:42:37;;;;;;;100.90;54.40;;;;;;;10.91;59.44;99977.88;236460;1193;124890;-60
2021/10/25 10:48:02;;;;;;;33.40;16.10;;;;;;;11.07;58.83;99973.53;236438;1193;139560;-60
2021/10/25 10:53:23;;;;;;;28.60;13.00;;;;;;;11.19;58.68;99973.13;236550;1193;138790;-61
2021/10/25 10:58:54;;;;;;;28.90;11.40;;;;;;;11.29;58.16;99956.43;236405;1193;138802;-62
2021/10/25 11:03:59;;;;;;;24.30;11.60;;;;;;;11.39;57.79;99949.20;236520;1193;139764;-60
2021/10/25 11:09:12;;;;;;;24.20;11.90;;;;;;;11.46;57.27;99944.04;236256;1193;139705;-62
2021/10/25 11:14:17;;;;;;;24.50;11.00;;;;;;;11.52;57.09;99929.00;236372;1193;139542;-61
2021/10/25 11:19:20;;;;;;;28.60;11.60;;;;;;;11.61;57.20;99918.40;236595;1195;140378;-61
2021/10/25 11:24:24;;;;;;;22.60;10.60;;;;;;;11.69;57.07;99914.40;236489;1193;139262;-61
2021/10/25 11:29:33;;;;;;;25.20;10.60;;;;;;;11.80;56.95;99910.47;236548;1193;139602;-60
2021/10/25 11:34:45;;;;;;;20.00;10.30;;;;;;;11.90;56.46;99910.85;236407;1193;139301;-60
2021/10/25 11:45:04;;;;;;;19.40;9.40;;;;;;;12.15;56.38;99909.52;236385;1193;138571;-59
2021/10/25 11:50:15;;;;;;;20.70;9.90;;;;;;;12.27;56.39;99900.14;236621;1193;138638;-61
2021/10/25 11:55:25;;;;;;;17.80;9.20;;;;;;;12.45;56.32;99895.75;236566;1193;140016;-59
2021/10/25 12:00:30;;;;;;;19.70;8.40;;;;;;;12.56;55.99;99889.77;236566;1193;141204;-61
2021/10/25 12:05:53;;;;;;;21.50;9.80;;;;;;;12.63;56.12;99880.86;236395;1193;138677;-61
2021/10/25 12:10:57;;;;;;;16.00;8.40;;;;;;;12.69;55.75;99877.33;236068;1193;140220;-61
2021/10/25 12:16:08;;;;;;;116.00;71.40;;;;;;;12.78;55.95;99871.40;236382;1193;138580;-61
2021/10/25 12:21:13;;;;;;;25.00;12.70;;;;;;;12.91;55.53;99868.39;236943;1193;139324;-60
2021/10/25 12:26:16;;;;;;;16.50;8.50;;;;;;;12.96;55.34;99870.91;236377;1193;138980;-59
2021/10/25 12:31:20;;;;;;;12.70;7.80;;;;;;;12.98;54.80;99868.52;236792;1193;139404;-59
2021/10/25 12:36:24;;;;;;;17.40;7.60;;;;;;;13.01;55.02;99867.42;235841;1193;140061;-61
2021/10/25 12:41:28;;;;;;;15.30;6.80;;;;;;;13.03;54.62;99860.34;236578;1193;138851;-60
2021/10/25 12:46:35;;;;;;;15.30;7.00;;;;;;;13.13;55.05;99847.46;236203;1193;139674;-60
2021/10/25 12:51:41;;;;;;;12.80;7.00;;;;;;;13.22;54.47;99836.23;236443;1193;138684;-59
2021/10/25 12:56:45;;;;;;;13.40;6.40;;;;;;;13.29;54.19;99833.73;236670;1193;138848;-59
2021/10/25 13:01:53;;;;;;;10.00;5.70;;;;;;;13.35;54.00;99829.05;236869;1193;138890;-60
2021/10/25 13:07:08;;;;;;;15.90;6.10;;;;;;;13.45;53.61;99821.67;236344;1193;140131;-61
2021/10/25 13:12:11;;;;;;;12.40;6.30;;;;;;;13.65;53.31;99812.79;236521;1193;138531;-61
2021/10/25 13:17:18;;;;;;;11.40;5.80;;;;;;;13.77;53.18;99812.55;236619;1193;139221;-60
2021/10/25 13:22:22;;;;;;;11.50;5.60;;;;;;;13.84;52.74;99807.33;236559;1193;138534;-61
2021/10/25 13:27:25;;;;;;;15.30;5.90;;;;;;;13.85;52.45;99804.95;236595;1193;138450;-62
2021/10/25 13:32:28;;;;;;;11.10;5.00;;;;;;;13.81;52.37;99797.89;236645;1193;138969;-61
2021/10/25 13:37:31;;;;;;;10.20;5.10;;;;;;;13.76;51.95;99791.23;236879;1193;139758;-61
2021/10/25 13:42:37;;;;;;;10.20;4.40;;;;;;;13.69;51.84;99787.21;236610;1193;138678;-60
2021/10/25 13:47:40;;;;;;;9.00;4.70;;;;;;;13.63;51.77;99781.70;236629;1193;138611;-60
2021/10/25 13:52:44;;;;;;;9.00;4.70;;;;;;;13.57;51.75;99774.09;236611;1193;138681;-60
2021/10/25 13:57:48;;;;;;;12.20;4.30;;;;;;;13.50;51.88;99765.96;236430;1193;138801;-61
2021/10/25 14:02:55;;;;;;;97.30;61.80;;;;;;;13.45;51.76;99760.40;236648;1193;139924;-61
2021/10/25 14:07:58;;;;;;;101.90;62.40;;;;;;;13.42;51.70;99752.54;236498;1193;139048;-61
2021/10/25 14:13:10;;;;;;;15.80;8.60;;;;;;;13.41;51.73;99750.27;236396;1193;139261;-61
2021/10/25 14:18:14;;;;;;;10.30;4.50;;;;;;;13.35;51.50;99746.19;236502;1193;139172;-61
2021/10/25 14:23:17;;;;;;;8.60;4.40;;;;;;;13.29;51.45;99739.95;236356;1193;139414;-62
2021/10/25 14:28:22;;;;;;;9.40;4.50;;;;;;;13.24;51.31;99736.70;236366;1193;139199;-61
2021/10/25 14:33:26;;;;;;;8.50;4.40;;;;;;;13.19;51.23;99726.64;236469;1193;138874;-61
2021/10/25 14:38:59;;;;;;;8.10;4.50;;;;;;;13.13;51.18;99717.24;236336;1193;139117;-60
2021/10/25 14:44:08;;;;;;;11.20;4.40;;;;;;;13.08;51.11;99707.92;236581;1193;139289;-60
2021/10/25 14:54:20;;;;;;;413.00;292.70;;;;;;;12.97;51.06;99702.02;236267;1193;138883;-60
2021/10/25 14:59:23;;;;;;;156.60;92.60;;;;;;;12.94;51.17;99694.20;236606;1193;139324;-60
2021/10/25 15:04:26;;;;;;;23.00;13.00;;;;;;;12.91;50.90;99693.84;236429;1193;139037;-59
2021/10/25 15:09:30;;;;;;;16.50;5.50;;;;;;;12.80;51.09;99689.66;236561;1193;139296;-61
2021/10/25 15:14:40;;;;;;;11.70;4.60;;;;;;;12.71;51.19;99682.73;236573;1193;138849;-60
2021/10/25 15:19:47;;;;;;;11.70;5.10;;;;;;;12.62;50.92;99677.28;235781;1193;138524;-61
2021/10/25 15:24:54;;;;;;;15.70;5.20;;;;;;;12.51;50.82;99683.75;236661;1193;138562;-61
2021/10/25 15:29:58;;;;;;;12.30;6.10;;;;;;;12.38;50.81;99681.35;236384;1193;138955;-60
2021/10/25 15:35:03;;;;;;;17.20;6.80;;;;;;;12.26;50.69;99676.18;236947;1193;138303;-62
2021/10/25 15:40:08;;;;;;;18.80;7.10;;;;;;;12.13;50.89;99674.99;237374;1192;139486;-61
2021/10/25 15:45:11;;;;;;;16.50;7.10;;;;;;;12.01;51.16;99667.86;237520;1192;138814;-61
2021/10/25 15:50:15;;;;;;;17.10;7.00;;;;;;;11.87;51.26;99664.41;237445;1192;138918;-61
2021/10/25 15:55:18;;;;;;;16.30;7.10;;;;;;;11.73;51.23;99665.14;237575;1192;138623;-61
2021/10/25 16:00:21;;;;;;;19.70;7.20;;;;;;;11.62;51.39;99673.42;237093;1192;139186;-60
2021/10/25 16:05:27;;;;;;;20.80;7.40;;;;;;;11.49;51.56;99675.06;237063;1193;138884;-62
2021/10/25 16:10:30;;;;;;;21.30;7.40;;;;;;;11.34;51.55;99662.69;236448;1192;139345;-61
2021/10/25 16:15:36;;;;;;;20.20;8.10;;;;;;;11.20;51.72;99664.55;236885;1192;139275;-61
2021/10/25 16:20:40;;;;;;;;;;;;;;;11.07;51.97;99664.91;237178;1192;138419;-60
2021/10/25 16:25:46;;;;;;;23.10;9.20;;;;;;;10.94;51.85;99666.69;237026;1194;127046;-61
2021/10/25 16:30:54;;;;;;;21.10;10.50;;;;;;;10.84;52.31;99664.71;236791;1191;139275;-61
2021/10/25 16:35:57;;;;;;;21.50;9.80;;;;;;;10.77;52.26;99657.97;236616;1193;139543;-62
2021/10/25 16:41:00;;;;;;;24.30;11.70;;;;;;;10.70;52.65;99659.27;236542;1193;138799;-61
2021/10/25 16:46:06;;;;;;;28.20;13.00;;;;;;;10.61;52.41;99659.00;236687;1192;141045;-61
2021/10/25 16:51:13;;;;;;;28.00;14.40;;;;;;;10.53;52.86;99656.06;236234;1193;139395;-61
2021/10/25 17:12:17;;;;;;;189.20;101.60;;;;;;;10.16;53.56;99666.60;236624;1193;138786;-59
2021/10/25 17:17:21;;;;;;;38.00;18.20;;;;;;;10.10;53.96;99660.48;236467;1193;140090;-61
2021/10/25 17:22:24;;;;;;;35.00;16.50;;;;;;;10.00;53.99;99667.38;236357;1193;139300;-61
2021/10/25 17:27:27;;;;;;;33.90;17.20;;;;;;;9.87;54.10;99670.20;236097;1193;139440;-63
2021/10/25 17:32:31;;;;;;;31.70;16.10;;;;;;;9.75;54.35;99669.88;236529;1193;138317;-60
2021/10/25 17:37:35;;;;;;;33.40;17.30;;;;;;;9.63;54.87;99666.70;236595;1193;141796;-60
2021/10/25 17:42:38;;;;;;;33.60;16.90;;;;;;;9.54;54.90;99665.05;236500;1193;139195;-61
2021/10/25 17:47:41;;;;;;;42.70;21.20;;;;;;;9.47;55.24;99666.04;236435;1193;140158;-61
2021/10/25 17:52:45;;;;;;;40.00;17.50;;;;;;;9.45;55.09;99666.17;236521;1193;139488;-62
2021/10/25 17:57:53;;;;;;;37.50;16.70;;;;;;;9.32;55.37;99662.02;236587;1193;138608;-61
2021/10/25 18:03:05;;;;;;;36.80;17.30;;;;;;;9.18;55.47;99663.00;236595;1193;138772;-63
2021/10/25 18:08:10;;;;;;;31.70;17.20;;;;;;;9.07;55.72;99657.33;235965;1193;138753;-63
2021/10/25 18:13:15;;;;;;;34.00;17.60;;;;;;;8.94;55.98;99648.51;236727;1193;139131;-62
2021/10/25 18:18:19;;;;;;;37.10;18.50;;;;;;;8.84;55.92;99654.30;236638;1193;139137;-63
2021/10/25 18:23:26;;;;;;;36.00;18.40;;;;;;;8.73;56.42;99654.92;236533;1193;139675;-62
2021/10/25 18:28:29;;;;;;;34.30;17.80;;;;;;;8.66;56.68;99659.34;236648;1193;138644;-63
2021/10/25 18:33:33;;;;;;;43.60;17.60;;;;;;;8.56;56.63;99662.27;236565;1193;138999;-63
2021/10/25 18:38:37;;;;;;;38.20;18.40;;;;;;;8.47;56.96;99670.42;236353;1193;138604;-63
2021/10/25 18:43:40;;;;;;;140.70;78.50;;;;;;;8.42;57.31;99664.12;236299;1193;138717;-63
2021/10/25 18:48:44;;;;;;;42.00;21.00;;;;;;;8.50;57.57;99671.16;236363;1193;138545;-64
2021/10/25 18:53:47;;;;;;;46.30;19.50;;;;;;;8.44;57.07;99673.58;236492;1193;138976;-62
2021/10/25 18:58:50;;;;;;;40.30;19.80;;;;;;;8.35;57.39;99674.45;236526;1193;138669;-65
2021/10/25 19:03:54;;;;;;;38.50;18.80;;;;;;;8.24;57.45;99670.82;236429;1193;138581;-62
2021/10/25 19:08:57;;;;;;;35.10;18.70;;;;;;;8.14;57.71;99665.09;236546;1193;139044;-62
2021/10/25 19:14:05;;;;;;;36.50;19.30;;;;;;;8.00;57.82;99663.18;236770;1193;139075;-64
2021/10/25 19:19:09;;;;;;;36.70;19.10;;;;;;;7.90;58.08;99663.27;236500;1194;139550;-62
2021/10/25 19:24:13;;;;;;;50.30;22.80;;;;;;;7.79;58.07;99665.45;236498;1193;139203;-63
2021/10/25 19:29:17;;;;;;;49.80;25.70;;;;;;;7.67;58.17;99669.85;236550;1193;138537;-63
2021/10/25 19:34:24;;;;;;;63.70;30.30;;;;;;;7.50;58.07;99670.48;236292;1193;138469;-61
2021/10/25 19:39:27;;;;;;;60.80;31.80;;;;;;;7.35;58.08;99674.80;236476;1193;138912;-62
2021/10/25 19:44:31;;;;;;;73.20;32.90;;;;;;;7.22;57.94;99679.88;236404;1193;138611;-63
2021/10/25 19:49:35;;;;;;;64.10;31.70;;;;;;;7.11;58.34;99683.83;237046;1192;138412;-64
2021/10/25 19:54:38;;;;;;;414.00;263.70;;;;;;;7.03;58.50;99684.30;236516;1193;139054;-63
2021/10/25 19:59:43;;;;;;;66.00;32.30;;;;;;;7.09;59.21;99685.31;236562;1193;140720;-62
2021/10/25 20:04:46;;;;;;;69.40;33.00;;;;;;;7.17;59.07;99684.15;236064;1193;139135;-63
2021/10/25 20:09:49;;;;;;;63.80;32.30;;;;;;;7.11;58.88;99677.48;236121;1193;139514;-63
2021/10/25 20:14:53;;;;;;;70.40;32.70;;;;;;;7.04;58.87;99680.20;236529;1193;139499;-60
2021/10/25 20:19:57;;;;;;;71.30;35.00;;;;;;;6.99;58.99;99677.73;236664;1193;138713;-61
2021/10/25 20:25:00;;;;;;;68.80;34.10;;;;;;;6.89;58.93;99673.00;236030;1193;139161;-62
2021/10/25 20:30:05;;;;;;;72.90;35.40;;;;;;;6.82;59.00;99677.50;236785;1193;138629;-63
2021/10/25 20:35:08;;;;;;;80.70;37.60;;;;;;;6.73;59.28;99678.88;236809;1192;138676;-63
2021/10/25 20:40:13;;;;;;;75.50;38.30;;;;;;;6.63;59.27;99676.77;236550;1192;138948;-61
2021/10/25 20:45:17;;;;;;;82.90;41.10;;;;;;;6.53;59.34;99677.45;236518;1193;139144;-63
2021/10/25 20:50:19;;;;;;;75.00;39.50;;;;;;;6.43;59.26;99673.61;236606;1193;139229;-61
2021/10/25 20:55:23;;;;;;;77.50;39.20;;;;;;;6.31;59.40;99676.81;236349;1192;140242;-59
2021/10/25 21:00:26;;;;;;;78.20;39.60;;;;;;;6.19;59.62;99681.63;236410;1192;138800;-61
2021/10/25 21:05:30;;;;;;;85.70;43.00;;;;;;;6.05;59.65;99684.24;236513;1193;138504;-60
2021/10/25 21:10:33;;;;;;;83.40;42.20;;;;;;;5.93;59.89;99688.84;236429;1193;138378;-62
2021/10/25 21:15:37;;;;;;;80.00;40.60;;;;;;;5.87;59.92;99694.12;236648;1193;138401;-60
2021/10/25 21:20:40;;;;;;;82.90;42.00;;;;;;;5.78;60.00;99692.83;236641;1193;138476;-59
2021/10/25 21:25:43;;;;;;;86.00;42.10;;;;;;;5.70;60.21;99689.03;236719;1193;138117;-61
2021/10/25 21:30:49;;;;;;;80.60;41.20;;;;;;;5.71;60.19;99690.06;236475;1193;139469;-62
2021/10/25 21:35:52;;;;;;;84.70;42.50;;;;;;;5.75;60.56;99681.64;236662;1193;139046;-59
2021/10/25 21:40:55;;;;;;;88.80;44.90;;;;;;;5.79;60.33;99679.41;236582;1193;138399;-61
2021/10/25 21:45:58;;;;;;;95.10;47.00;;;;;;;5.76;60.52;99680.55;236114;1193;139072;-61
2021/10/25 21:51:02;;;;;;;92.70;47.20;;;;;;;5.73;60.40;99675.21;236735;1193;138257;-61
2021/10/25 21:56:06;;;;;;;87.80;46.80;;;;;;;5.69;60.53;99676.56;236613;1192;138368;-63
2021/10/25 22:01:09;;;;;;;96.00;47.20;;;;;;;5.62;60.34;99680.30;236510;1193;140023;-60
2021/10/25 22:06:19;;;;;;;92.10;47.90;;;;;;;5.50;60.22;99677.33;236605;1193;138863;-61
2021/10/25 22:11:26;;;;;;;93.50;45.60;;;;;;;5.39;60.28;99674.85;236561;1193;138791;-61
2021/10/25 22:16:29;;;;;;;90.70;47.30;;;;;;;5.33;60.60;99677.69;235920;1193;138525;-62
2021/10/25 22:21:32;;;;;;;88.20;46.10;;;;;;;5.31;60.95;99675.30;236424;1193;138234;-61
2021/10/25 22:26:36;;;;;;;83.80;44.40;;;;;;;5.27;60.77;99666.61;236723;1192;138736;-61
2021/10/25 22:31:39;;;;;;;86.00;43.50;;;;;;;5.20;60.97;99656.78;236804;1193;138574;-61
2021/10/25 22:36:42;;;;;;;87.10;44.90;;;;;;;5.15;61.12;99653.61;236607;1193;138540;-63
2021/10/25 22:41:46;;;;;;;85.30;43.30;;;;;;;5.08;60.87;99653.80;236672;1193;138592;-59
2021/10/25 22:46:49;;;;;;;86.90;44.40;;;;;;;5.01;61.04;99650.86;236548;1193;138807;-58
2021/10/25 22:51:52;;;;;;;84.30;45.60;;;;;;;4.94;60.75;99655.24;236297;1193;138945;-61
2021/10/25 22:56:55;;;;;;;90.00;46.30;;;;;;;4.97;61.08;99654.48;236576;1193;139522;-61
2021/10/25 23:01:59;;;;;;;85.10;45.00;;;;;;;4.98;60.83;99652.17;236591;1193;139122;-59
2021/10/25 23:07:02;;;;;;;98.70;46.90;;;;;;;4.94;60.76;99650.36;236651;1193;138489;-62
2021/10/25 23:12:06;;;;;;;86.00;45.30;;;;;;;4.89;61.02;99650.30;236230;1193;139149;-63
2021/10/25 23:17:09;;;;;;;83.80;44.70;;;;;;;4.86;60.85;99652.16;236561;1193;138736;-63
2021/10/25 23:22:13;;;;;;;86.20;44.00;;;;;;;4.88;61.18;99652.99;236493;1193;138400;-60
2021/10/25 23:27:16;;;;;;;81.30;42.80;;;;;;;4.86;61.01;99653.05;236581;1193;141270;-61
2021/10/25 23:32:20;;;;;;;87.50;44.70;;;;;;;4.80;60.79;99649.71;236777;1193;139474;-60
2021/10/25 23:37:25;;;;;;;81.70;42.20;;;;;;;4.67;60.90;99655.52;236550;1193;139051;-67
2021/10/25 23:42:29;;;;;;;87.20;44.40;;;;;;;4.51;60.97;99663.67;236036;1193;138399;-62
2021/10/25 23:47:33;;;;;;;85.60;43.10;;;;;;;4.44;61.33;99671.96;236445;1193;138726;-64
2021/10/25 23:52:36;;;;;;;80.00;41.90;;;;;;;4.50;61.54;99669.32;236695;1193;138389;-61
2021/10/25 23:57:40;;;;;;;84.10;43.80;;;;;;;4.46;61.48;99671.73;236751;1192;138494;-61
